Terminal Aerodrome Forecast
Issued by NWS Knoxville/Tri Cities, TN

Home | Current Version | Previous Version | Text Only | Print | Product List | Glossary On
Versions: 1 2 3 4 5 6 7 8 9 10 11 12 13 14 15 16 17 18 19 20 21 22 23 24 25 26 27 28 29 30 31
000
FTUS44 KMRX 222320
TAFCHA
TAF
KCHA 222320Z 2300/2324 16005KT 4SM -SHRA BR OVC010
      TEMPO 2300/2302 TSRA OVC010CB
     FM230600 15005KT 5SM BR VCSH OVC006
     FM231400 VRB03KT 4SM -SHRA BR OVC010=

USA.gov is the U.S. government's official web portal to all federal, state and local government web resources and services.